sensor_id;sensor_type;location;lat;lon;timestamp;P1;durP1;ratioP1;P2;durP2;ratioP2
41293;SDS011;27037;52.010;4.446;2023-09-19T00:00:18;6.93;;;1.90;;
41293;SDS011;27037;52.010;4.446;2023-09-19T00:02:55;11.20;;;1.92;;
41293;SDS011;27037;52.010;4.446;2023-09-19T00:05:24;10.00;;;2.08;;
41293;SDS011;27037;52.010;4.446;2023-09-19T00:07:53;10.50;;;2.10;;
41293;SDS011;27037;52.010;4.446;2023-09-19T00:10:22;10.48;;;2.03;;
41293;SDS011;27037;52.010;4.446;2023-09-19T00:12:49;14.25;;;2.47;;
41293;SDS011;27037;52.010;4.446;2023-09-19T00:15:17;11.45;;;2.00;;
41293;SDS011;27037;52.010;4.446;2023-09-19T00:17:43;9.07;;;2.20;;
41293;SDS011;27037;52.010;4.446;2023-09-19T00:20:08;9.45;;;1.90;;
41293;SDS011;27037;52.010;4.446;2023-09-19T00:22:40;9.50;;;1.85;;
41293;SDS011;27037;52.010;4.446;2023-09-19T00:25:10;8.43;;;2.25;;
41293;SDS011;27037;52.010;4.446;2023-09-19T00:27:39;16.08;;;2.28;;
41293;SDS011;27037;52.010;4.446;2023-09-19T00:30:09;8.63;;;2.05;;
41293;SDS011;27037;52.010;4.446;2023-09-19T00:32:40;10.00;;;2.08;;
41293;SDS011;27037;52.010;4.446;2023-09-19T00:35:07;9.32;;;2.00;;
41293;SDS011;27037;52.010;4.446;2023-09-19T00:37:34;12.93;;;2.55;;
41293;SDS011;27037;52.010;4.446;2023-09-19T00:40:00;10.23;;;1.98;;
41293;SDS011;27037;52.010;4.446;2023-09-19T00:42:28;15.88;;;2.33;;
41293;SDS011;27037;52.010;4.446;2023-09-19T00:44:53;11.63;;;2.40;;
41293;SDS011;27037;52.010;4.446;2023-09-19T00:47:19;11.88;;;2.25;;
41293;SDS011;27037;52.010;4.446;2023-09-19T00:49:45;13.30;;;2.28;;
41293;SDS011;27037;52.010;4.446;2023-09-19T00:52:17;14.48;;;2.95;;
41293;SDS011;27037;52.010;4.446;2023-09-19T00:54:47;13.73;;;2.22;;
41293;SDS011;27037;52.010;4.446;2023-09-19T00:57:13;14.88;;;2.65;;
41293;SDS011;27037;52.010;4.446;2023-09-19T00:59:44;9.82;;;2.15;;
41293;SDS011;27037;52.010;4.446;2023-09-19T01:02:10;13.45;;;2.90;;
41293;SDS011;27037;52.010;4.446;2023-09-19T01:04:39;12.68;;;2.85;;
41293;SDS011;27037;52.010;4.446;2023-09-19T01:07:05;11.27;;;2.65;;
41293;SDS011;27037;52.010;4.446;2023-09-19T01:09:33;16.63;;;2.80;;
41293;SDS011;27037;52.010;4.446;2023-09-19T01:12:01;10.88;;;2.40;;
41293;SDS011;27037;52.010;4.446;2023-09-19T01:14:44;13.60;;;2.65;;
41293;SDS011;27037;52.010;4.446;2023-09-19T01:20:03;16.35;;;2.50;;
41293;SDS011;27037;52.010;4.446;2023-09-19T01:28:45;14.38;;;2.55;;
41293;SDS011;27037;52.010;4.446;2023-09-19T01:31:28;13.25;;;2.45;;
41293;SDS011;27037;52.010;4.446;2023-09-19T01:33:59;16.83;;;2.72;;
41293;SDS011;27037;52.010;4.446;2023-09-19T01:36:33;12.50;;;2.50;;
41293;SDS011;27037;52.010;4.446;2023-09-19T01:39:01;22.43;;;2.90;;
41293;SDS011;27037;52.010;4.446;2023-09-19T01:41:41;16.10;;;2.43;;
41293;SDS011;27037;52.010;4.446;2023-09-19T01:47:19;16.90;;;2.63;;
41293;SDS011;27037;52.010;4.446;2023-09-19T01:52:46;18.45;;;3.20;;
41293;SDS011;27037;52.010;4.446;2023-09-19T01:55:16;12.77;;;2.50;;
41293;SDS011;27037;52.010;4.446;2023-09-19T01:57:48;15.20;;;2.47;;
41293;SDS011;27037;52.010;4.446;2023-09-19T02:00:19;14.90;;;2.85;;
41293;SDS011;27037;52.010;4.446;2023-09-19T02:02:48;16.50;;;2.92;;
41293;SDS011;27037;52.010;4.446;2023-09-19T02:05:24;15.73;;;2.35;;
41293;SDS011;27037;52.010;4.446;2023-09-19T02:07:52;15.35;;;2.75;;
41293;SDS011;27037;52.010;4.446;2023-09-19T02:10:18;18.33;;;2.35;;
41293;SDS011;27037;52.010;4.446;2023-09-19T02:12:44;13.98;;;2.55;;
41293;SDS011;27037;52.010;4.446;2023-09-19T02:15:10;12.73;;;2.30;;
41293;SDS011;27037;52.010;4.446;2023-09-19T02:17:36;14.85;;;2.40;;
41293;SDS011;27037;52.010;4.446;2023-09-19T02:20:02;13.68;;;2.80;;
41293;SDS011;27037;52.010;4.446;2023-09-19T02:22:36;13.02;;;2.53;;
41293;SDS011;27037;52.010;4.446;2023-09-19T02:25:02;14.20;;;2.10;;
41293;SDS011;27037;52.010;4.446;2023-09-19T02:27:30;18.88;;;3.05;;
41293;SDS011;27037;52.010;4.446;2023-09-19T02:29:56;11.65;;;2.22;;
41293;SDS011;27037;52.010;4.446;2023-09-19T02:32:21;12.32;;;2.33;;
41293;SDS011;27037;52.010;4.446;2023-09-19T02:34:48;9.52;;;2.22;;
41293;SDS011;27037;52.010;4.446;2023-09-19T02:37:13;13.70;;;2.38;;
41293;SDS011;27037;52.010;4.446;2023-09-19T02:39:41;17.70;;;2.35;;
41293;SDS011;27037;52.010;4.446;2023-09-19T02:42:07;14.40;;;2.65;;
41293;SDS011;27037;52.010;4.446;2023-09-19T02:44:32;9.40;;;2.25;;
41293;SDS011;27037;52.010;4.446;2023-09-19T02:46:58;15.80;;;2.47;;
41293;SDS011;27037;52.010;4.446;2023-09-19T02:49:24;9.23;;;2.25;;
41293;SDS011;27037;52.010;4.446;2023-09-19T02:51:50;9.63;;;2.05;;
41293;SDS011;27037;52.010;4.446;2023-09-19T02:54:16;11.85;;;2.10;;
41293;SDS011;27037;52.010;4.446;2023-09-19T02:56:42;12.07;;;2.15;;
41293;SDS011;27037;52.010;4.446;2023-09-19T02:59:08;12.35;;;2.25;;
41293;SDS011;27037;52.010;4.446;2023-09-19T03:01:35;11.48;;;2.17;;
41293;SDS011;27037;52.010;4.446;2023-09-19T03:04:02;9.70;;;1.83;;
41293;SDS011;27037;52.010;4.446;2023-09-19T03:06:28;14.95;;;2.30;;
41293;SDS011;27037;52.010;4.446;2023-09-19T03:08:55;12.50;;;1.90;;
41293;SDS011;27037;52.010;4.446;2023-09-19T03:11:21;8.75;;;2.05;;
41293;SDS011;27037;52.010;4.446;2023-09-19T03:13:54;11.20;;;1.98;;
41293;SDS011;27037;52.010;4.446;2023-09-19T03:16:20;11.20;;;1.80;;
41293;SDS011;27037;52.010;4.446;2023-09-19T03:18:50;11.38;;;2.20;;
41293;SDS011;27037;52.010;4.446;2023-09-19T03:21:16;11.52;;;2.00;;
41293;SDS011;27037;52.010;4.446;2023-09-19T03:23:42;12.65;;;2.33;;
41293;SDS011;27037;52.010;4.446;2023-09-19T03:26:10;9.90;;;2.25;;
41293;SDS011;27037;52.010;4.446;2023-09-19T03:28:42;10.43;;;2.53;;
41293;SDS011;27037;52.010;4.446;2023-09-19T03:31:08;14.63;;;2.80;;
41293;SDS011;27037;52.010;4.446;2023-09-19T03:33:34;15.25;;;3.05;;
41293;SDS011;27037;52.010;4.446;2023-09-19T03:36:00;11.48;;;2.90;;
41293;SDS011;27037;52.010;4.446;2023-09-19T03:38:30;9.98;;;2.65;;
41293;SDS011;27037;52.010;4.446;2023-09-19T03:40:56;8.00;;;2.30;;
41293;SDS011;27037;52.010;4.446;2023-09-19T03:43:22;14.45;;;2.40;;
41293;SDS011;27037;52.010;4.446;2023-09-19T03:45:47;10.40;;;2.42;;
41293;SDS011;27037;52.010;4.446;2023-09-19T03:48:13;10.25;;;1.92;;
41293;SDS011;27037;52.010;4.446;2023-09-19T03:50:39;14.48;;;2.70;;
41293;SDS011;27037;52.010;4.446;2023-09-19T03:53:05;12.38;;;1.90;;
41293;SDS011;27037;52.010;4.446;2023-09-19T03:55:33;16.65;;;2.28;;
41293;SDS011;27037;52.010;4.446;2023-09-19T03:58:00;12.85;;;2.10;;
41293;SDS011;27037;52.010;4.446;2023-09-19T04:00:27;13.30;;;2.42;;
41293;SDS011;27037;52.010;4.446;2023-09-19T04:02:54;10.07;;;2.28;;
41293;SDS011;27037;52.010;4.446;2023-09-19T04:05:21;14.57;;;2.35;;
41293;SDS011;27037;52.010;4.446;2023-09-19T04:07:47;10.57;;;2.28;;
41293;SDS011;27037;52.010;4.446;2023-09-19T04:10:13;12.70;;;2.30;;
41293;SDS011;27037;52.010;4.446;2023-09-19T04:12:39;11.50;;;2.22;;
41293;SDS011;27037;52.010;4.446;2023-09-19T04:15:06;17.10;;;2.83;;
41293;SDS011;27037;52.010;4.446;2023-09-19T04:17:32;12.20;;;2.30;;
41293;SDS011;27037;52.010;4.446;2023-09-19T04:19:58;15.98;;;3.03;;
41293;SDS011;27037;52.010;4.446;2023-09-19T04:22:25;12.65;;;2.35;;
41293;SDS011;27037;52.010;4.446;2023-09-19T04:24:50;16.83;;;2.50;;
41293;SDS011;27037;52.010;4.446;2023-09-19T04:27:16;15.82;;;2.58;;
41293;SDS011;27037;52.010;4.446;2023-09-19T04:29:43;12.25;;;2.58;;
41293;SDS011;27037;52.010;4.446;2023-09-19T04:32:09;12.90;;;2.35;;
41293;SDS011;27037;52.010;4.446;2023-09-19T04:34:35;11.50;;;2.47;;
41293;SDS011;27037;52.010;4.446;2023-09-19T04:37:01;7.88;;;1.70;;
41293;SDS011;27037;52.010;4.446;2023-09-19T04:39:27;12.02;;;2.25;;
41293;SDS011;27037;52.010;4.446;2023-09-19T04:41:53;11.23;;;2.15;;
41293;SDS011;27037;52.010;4.446;2023-09-19T04:44:19;8.77;;;1.85;;
41293;SDS011;27037;52.010;4.446;2023-09-19T04:46:45;9.50;;;1.63;;
41293;SDS011;27037;52.010;4.446;2023-09-19T04:49:11;10.98;;;2.25;;
41293;SDS011;27037;52.010;4.446;2023-09-19T04:51:38;11.77;;;1.95;;
41293;SDS011;27037;52.010;4.446;2023-09-19T04:54:05;8.77;;;2.13;;
41293;SDS011;27037;52.010;4.446;2023-09-19T04:56:31;10.75;;;1.90;;
41293;SDS011;27037;52.010;4.446;2023-09-19T04:58:57;13.70;;;1.98;;
41293;SDS011;27037;52.010;4.446;2023-09-19T05:01:24;17.75;;;2.90;;
41293;SDS011;27037;52.010;4.446;2023-09-19T05:03:49;15.75;;;2.72;;
41293;SDS011;27037;52.010;4.446;2023-09-19T05:06:17;12.60;;;2.20;;
41293;SDS011;27037;52.010;4.446;2023-09-19T05:08:46;9.95;;;2.13;;
41293;SDS011;27037;52.010;4.446;2023-09-19T05:11:16;12.45;;;2.50;;
41293;SDS011;27037;52.010;4.446;2023-09-19T05:13:47;13.73;;;2.60;;
41293;SDS011;27037;52.010;4.446;2023-09-19T05:16:12;18.48;;;2.60;;
41293;SDS011;27037;52.010;4.446;2023-09-19T05:18:38;12.95;;;2.63;;
41293;SDS011;27037;52.010;4.446;2023-09-19T05:21:04;14.10;;;2.65;;
41293;SDS011;27037;52.010;4.446;2023-09-19T05:23:30;15.25;;;2.97;;
41293;SDS011;27037;52.010;4.446;2023-09-19T05:25:56;14.25;;;2.42;;
41293;SDS011;27037;52.010;4.446;2023-09-19T05:28:24;14.52;;;2.75;;
41293;SDS011;27037;52.010;4.446;2023-09-19T05:30:51;16.67;;;2.97;;
41293;SDS011;27037;52.010;4.446;2023-09-19T05:33:18;14.27;;;2.67;;
41293;SDS011;27037;52.010;4.446;2023-09-19T05:35:44;17.40;;;2.70;;
41293;SDS011;27037;52.010;4.446;2023-09-19T05:38:12;12.88;;;2.65;;
41293;SDS011;27037;52.010;4.446;2023-09-19T05:40:38;16.55;;;2.53;;
41293;SDS011;27037;52.010;4.446;2023-09-19T05:43:07;15.32;;;3.15;;
41293;SDS011;27037;52.010;4.446;2023-09-19T05:45:33;14.48;;;2.85;;
41293;SDS011;27037;52.010;4.446;2023-09-19T05:48:07;13.88;;;2.58;;
41293;SDS011;27037;52.010;4.446;2023-09-19T05:50:37;16.58;;;2.70;;
41293;SDS011;27037;52.010;4.446;2023-09-19T05:53:03;14.98;;;3.00;;
41293;SDS011;27037;52.010;4.446;2023-09-19T05:55:32;14.18;;;2.60;;
41293;SDS011;27037;52.010;4.446;2023-09-19T05:57:58;17.55;;;3.08;;
41293;SDS011;27037;52.010;4.446;2023-09-19T06:00:24;16.33;;;2.70;;
41293;SDS011;27037;52.010;4.446;2023-09-19T06:02:55;14.57;;;2.90;;
41293;SDS011;27037;52.010;4.446;2023-09-19T06:05:22;18.63;;;3.22;;
41293;SDS011;27037;52.010;4.446;2023-09-19T06:07:49;22.08;;;3.33;;
41293;SDS011;27037;52.010;4.446;2023-09-19T06:10:15;14.38;;;2.95;;
41293;SDS011;27037;52.010;4.446;2023-09-19T06:12:42;18.42;;;3.25;;
41293;SDS011;27037;52.010;4.446;2023-09-19T06:15:12;18.25;;;3.08;;
41293;SDS011;27037;52.010;4.446;2023-09-19T06:17:46;18.00;;;3.78;;
41293;SDS011;27037;52.010;4.446;2023-09-19T06:20:13;18.30;;;3.17;;
41293;SDS011;27037;52.010;4.446;2023-09-19T06:22:40;22.52;;;3.50;;
41293;SDS011;27037;52.010;4.446;2023-09-19T06:25:07;16.02;;;3.22;;
41293;SDS011;27037;52.010;4.446;2023-09-19T06:27:36;18.23;;;3.20;;
41293;SDS011;27037;52.010;4.446;2023-09-19T06:30:09;18.98;;;3.30;;
41293;SDS011;27037;52.010;4.446;2023-09-19T06:32:43;18.85;;;3.13;;
41293;SDS011;27037;52.010;4.446;2023-09-19T06:35:09;19.73;;;3.20;;
41293;SDS011;27037;52.010;4.446;2023-09-19T06:37:36;17.17;;;3.05;;
41293;SDS011;27037;52.010;4.446;2023-09-19T06:40:12;16.60;;;3.08;;
41293;SDS011;27037;52.010;4.446;2023-09-19T06:42:42;13.80;;;3.10;;
41293;SDS011;27037;52.010;4.446;2023-09-19T06:45:10;18.08;;;2.95;;
41293;SDS011;27037;52.010;4.446;2023-09-19T06:47:38;19.00;;;3.22;;
41293;SDS011;27037;52.010;4.446;2023-09-19T06:50:04;16.23;;;3.10;;
41293;SDS011;27037;52.010;4.446;2023-09-19T06:52:31;18.25;;;3.17;;
41293;SDS011;27037;52.010;4.446;2023-09-19T06:54:58;20.52;;;3.10;;
41293;SDS011;27037;52.010;4.446;2023-09-19T06:57:23;16.50;;;2.92;;
41293;SDS011;27037;52.010;4.446;2023-09-19T06:59:49;16.98;;;2.95;;
41293;SDS011;27037;52.010;4.446;2023-09-19T07:02:15;15.82;;;2.95;;
41293;SDS011;27037;52.010;4.446;2023-09-19T07:04:41;25.13;;;3.78;;
41293;SDS011;27037;52.010;4.446;2023-09-19T07:07:07;14.98;;;3.40;;
41293;SDS011;27037;52.010;4.446;2023-09-19T07:09:34;20.20;;;3.17;;
41293;SDS011;27037;52.010;4.446;2023-09-19T07:11:59;19.50;;;3.35;;
41293;SDS011;27037;52.010;4.446;2023-09-19T07:14:25;20.63;;;3.58;;
41293;SDS011;27037;52.010;4.446;2023-09-19T07:16:52;20.65;;;3.25;;
41293;SDS011;27037;52.010;4.446;2023-09-19T07:19:17;21.33;;;3.33;;
41293;SDS011;27037;52.010;4.446;2023-09-19T07:21:43;16.00;;;3.67;;
41293;SDS011;27037;52.010;4.446;2023-09-19T07:24:08;18.23;;;3.08;;
41293;SDS011;27037;52.010;4.446;2023-09-19T07:26:34;18.10;;;3.60;;
41293;SDS011;27037;52.010;4.446;2023-09-19T07:29:00;15.43;;;3.17;;
41293;SDS011;27037;52.010;4.446;2023-09-19T07:31:28;20.35;;;3.33;;
41293;SDS011;27037;52.010;4.446;2023-09-19T07:33:54;21.83;;;3.40;;
41293;SDS011;27037;52.010;4.446;2023-09-19T07:36:20;21.15;;;3.50;;
41293;SDS011;27037;52.010;4.446;2023-09-19T07:38:45;17.88;;;3.38;;
41293;SDS011;27037;52.010;4.446;2023-09-19T07:41:13;19.35;;;3.40;;
41293;SDS011;27037;52.010;4.446;2023-09-19T07:43:38;18.52;;;3.20;;
41293;SDS011;27037;52.010;4.446;2023-09-19T07:46:08;21.48;;;3.15;;
41293;SDS011;27037;52.010;4.446;2023-09-19T07:48:37;18.10;;;3.22;;
41293;SDS011;27037;52.010;4.446;2023-09-19T07:51:07;19.52;;;3.67;;
41293;SDS011;27037;52.010;4.446;2023-09-19T07:53:34;22.35;;;3.67;;
41293;SDS011;27037;52.010;4.446;2023-09-19T07:56:07;20.75;;;4.05;;
41293;SDS011;27037;52.010;4.446;2023-09-19T07:58:34;16.67;;;3.38;;
41293;SDS011;27037;52.010;4.446;2023-09-19T08:01:05;21.52;;;3.38;;
41293;SDS011;27037;52.010;4.446;2023-09-19T08:03:32;18.92;;;3.00;;
41293;SDS011;27037;52.010;4.446;2023-09-19T08:05:59;19.50;;;3.40;;
41293;SDS011;27037;52.010;4.446;2023-09-19T08:08:26;17.70;;;3.55;;
41293;SDS011;27037;52.010;4.446;2023-09-19T08:10:53;19.90;;;3.72;;
41293;SDS011;27037;52.010;4.446;2023-09-19T08:13:21;20.20;;;4.50;;
41293;SDS011;27037;52.010;4.446;2023-09-19T08:15:50;20.17;;;3.53;;
41293;SDS011;27037;52.010;4.446;2023-09-19T08:18:18;21.58;;;3.50;;
41293;SDS011;27037;52.010;4.446;2023-09-19T08:20:49;17.38;;;3.30;;
41293;SDS011;27037;52.010;4.446;2023-09-19T08:23:15;18.08;;;3.45;;
41293;SDS011;27037;52.010;4.446;2023-09-19T08:25:43;19.75;;;3.10;;
41293;SDS011;27037;52.010;4.446;2023-09-19T08:28:08;17.20;;;3.35;;
41293;SDS011;27037;52.010;4.446;2023-09-19T08:30:37;18.10;;;3.30;;
41293;SDS011;27037;52.010;4.446;2023-09-19T08:33:05;22.80;;;3.83;;
41293;SDS011;27037;52.010;4.446;2023-09-19T08:35:32;13.10;;;2.92;;
41293;SDS011;27037;52.010;4.446;2023-09-19T08:37:58;22.27;;;3.30;;
41293;SDS011;27037;52.010;4.446;2023-09-19T08:40:29;16.17;;;3.10;;
41293;SDS011;27037;52.010;4.446;2023-09-19T08:42:58;20.52;;;3.42;;
41293;SDS011;27037;52.010;4.446;2023-09-19T08:45:25;21.60;;;3.70;;
41293;SDS011;27037;52.010;4.446;2023-09-19T08:50:39;20.40;;;3.45;;
41293;SDS011;27037;52.010;4.446;2023-09-19T08:53:19;24.27;;;3.80;;
41293;SDS011;27037;52.010;4.446;2023-09-19T08:55:52;25.25;;;3.47;;
41293;SDS011;27037;52.010;4.446;2023-09-19T08:58:21;19.83;;;3.10;;
41293;SDS011;27037;52.010;4.446;2023-09-19T09:00:52;21.38;;;3.85;;
41293;SDS011;27037;52.010;4.446;2023-09-19T09:03:20;18.90;;;4.00;;
41293;SDS011;27037;52.010;4.446;2023-09-19T09:05:47;25.27;;;3.47;;
41293;SDS011;27037;52.010;4.446;2023-09-19T09:08:15;22.77;;;3.85;;
41293;SDS011;27037;52.010;4.446;2023-09-19T09:10:43;28.50;;;4.38;;
41293;SDS011;27037;52.010;4.446;2023-09-19T09:13:09;24.35;;;3.53;;
41293;SDS011;27037;52.010;4.446;2023-09-19T09:15:39;19.98;;;3.28;;
41293;SDS011;27037;52.010;4.446;2023-09-19T09:18:06;23.15;;;3.67;;
41293;SDS011;27037;52.010;4.446;2023-09-19T09:20:31;21.05;;;3.38;;
41293;SDS011;27037;52.010;4.446;2023-09-19T09:22:57;14.50;;;3.03;;
41293;SDS011;27037;52.010;4.446;2023-09-19T09:25:47;20.58;;;3.88;;
41293;SDS011;27037;52.010;4.446;2023-09-19T09:28:24;18.83;;;3.40;;
41293;SDS011;27037;52.010;4.446;2023-09-19T09:30:53;19.38;;;3.22;;
41293;SDS011;27037;52.010;4.446;2023-09-19T09:33:20;20.95;;;3.53;;
41293;SDS011;27037;52.010;4.446;2023-09-19T09:35:53;23.00;;;3.30;;
41293;SDS011;27037;52.010;4.446;2023-09-19T09:38:47;14.25;;;3.50;;
41293;SDS011;27037;52.010;4.446;2023-09-19T09:41:13;15.88;;;3.20;;
41293;SDS011;27037;52.010;4.446;2023-09-19T09:43:52;17.67;;;3.45;;
41293;SDS011;27037;52.010;4.446;2023-09-19T09:46:19;17.50;;;2.97;;
41293;SDS011;27037;52.010;4.446;2023-09-19T09:48:46;15.30;;;2.90;;
41293;SDS011;27037;52.010;4.446;2023-09-19T09:51:41;11.75;;;2.88;;
41293;SDS011;27037;52.010;4.446;2023-09-19T09:54:25;19.13;;;3.10;;
41293;SDS011;27037;52.010;4.446;2023-09-19T09:57:04;18.48;;;3.17;;
41293;SDS011;27037;52.010;4.446;2023-09-19T09:59:52;15.27;;;3.15;;
41293;SDS011;27037;52.010;4.446;2023-09-19T10:02:19;21.70;;;3.20;;
41293;SDS011;27037;52.010;4.446;2023-09-19T10:04:53;16.33;;;2.70;;
41293;SDS011;27037;52.010;4.446;2023-09-19T10:07:25;11.35;;;2.28;;
41293;SDS011;27037;52.010;4.446;2023-09-19T10:09:58;15.40;;;2.63;;
41293;SDS011;27037;52.010;4.446;2023-09-19T10:12:30;13.70;;;2.50;;
41293;SDS011;27037;52.010;4.446;2023-09-19T10:14:57;9.80;;;2.55;;
41293;SDS011;27037;52.010;4.446;2023-09-19T10:17:27;16.52;;;2.95;;
41293;SDS011;27037;52.010;4.446;2023-09-19T10:19:57;19.83;;;3.08;;
41293;SDS011;27037;52.010;4.446;2023-09-19T10:22:24;17.10;;;3.38;;
41293;SDS011;27037;52.010;4.446;2023-09-19T10:24:53;13.70;;;2.47;;
41293;SDS011;27037;52.010;4.446;2023-09-19T10:27:20;20.05;;;3.10;;
41293;SDS011;27037;52.010;4.446;2023-09-19T10:29:48;13.40;;;2.88;;
41293;SDS011;27037;52.010;4.446;2023-09-19T10:32:19;13.20;;;2.40;;
41293;SDS011;27037;52.010;4.446;2023-09-19T10:34:49;12.50;;;2.50;;
41293;SDS011;27037;52.010;4.446;2023-09-19T10:37:18;11.10;;;2.53;;
41293;SDS011;27037;52.010;4.446;2023-09-19T10:39:47;12.30;;;2.40;;
41293;SDS011;27037;52.010;4.446;2023-09-19T10:42:16;12.25;;;2.15;;
41293;SDS011;27037;52.010;4.446;2023-09-19T10:44:45;17.05;;;2.35;;
41293;SDS011;27037;52.010;4.446;2023-09-19T10:47:18;10.57;;;2.38;;
41293;SDS011;27037;52.010;4.446;2023-09-19T10:49:45;10.48;;;2.22;;
41293;SDS011;27037;52.010;4.446;2023-09-19T10:52:12;15.40;;;2.58;;
41293;SDS011;27037;52.010;4.446;2023-09-19T10:54:48;9.60;;;2.05;;
41293;SDS011;27037;52.010;4.446;2023-09-19T10:57:22;15.48;;;2.38;;
41293;SDS011;27037;52.010;4.446;2023-09-19T11:00:05;11.55;;;2.28;;
41293;SDS011;27037;52.010;4.446;2023-09-19T11:05:40;9.60;;;2.10;;
41293;SDS011;27037;52.010;4.446;2023-09-19T11:08:07;10.45;;;2.00;;
41293;SDS011;27037;52.010;4.446;2023-09-19T11:10:46;11.25;;;2.03;;
41293;SDS011;27037;52.010;4.446;2023-09-19T11:13:29;9.10;;;2.00;;
41293;SDS011;27037;52.010;4.446;2023-09-19T11:26:43;7.95;;;1.90;;
41293;SDS011;27037;52.010;4.446;2023-09-19T11:29:30;10.27;;;2.10;;
41293;SDS011;27037;52.010;4.446;2023-09-19T11:31:56;8.95;;;2.17;;
41293;SDS011;27037;52.010;4.446;2023-09-19T11:39:36;9.07;;;2.22;;
41293;SDS011;27037;52.010;4.446;2023-09-19T11:48:15;11.75;;;1.88;;
41293;SDS011;27037;52.010;4.446;2023-09-19T11:50:43;12.40;;;2.00;;
41293;SDS011;27037;52.010;4.446;2023-09-19T11:53:12;11.98;;;2.00;;
41293;SDS011;27037;52.010;4.446;2023-09-19T11:55:39;6.57;;;1.90;;
41293;SDS011;27037;52.010;4.446;2023-09-19T11:58:08;10.05;;;1.88;;
41293;SDS011;27037;52.010;4.446;2023-09-19T12:00:35;11.40;;;1.98;;
41293;SDS011;27037;52.010;4.446;2023-09-19T12:03:05;9.27;;;1.95;;
41293;SDS011;27037;52.010;4.446;2023-09-19T12:05:37;11.93;;;2.38;;
41293;SDS011;27037;52.010;4.446;2023-09-19T12:08:07;13.15;;;1.88;;
41293;SDS011;27037;52.010;4.446;2023-09-19T12:10:54;12.32;;;2.10;;
41293;SDS011;27037;52.010;4.446;2023-09-19T12:13:22;8.32;;;2.00;;
41293;SDS011;27037;52.010;4.446;2023-09-19T12:15:48;8.02;;;1.70;;
41293;SDS011;27037;52.010;4.446;2023-09-19T12:18:29;7.47;;;1.77;;
41293;SDS011;27037;52.010;4.446;2023-09-19T12:20:55;9.13;;;1.98;;
41293;SDS011;27037;52.010;4.446;2023-09-19T12:23:22;7.97;;;1.90;;
41293;SDS011;27037;52.010;4.446;2023-09-19T12:25:48;9.15;;;1.98;;
41293;SDS011;27037;52.010;4.446;2023-09-19T12:28:18;8.18;;;1.92;;
41293;SDS011;27037;52.010;4.446;2023-09-19T12:30:47;8.57;;;2.05;;
41293;SDS011;27037;52.010;4.446;2023-09-19T12:33:17;8.63;;;2.08;;
41293;SDS011;27037;52.010;4.446;2023-09-19T12:35:45;10.43;;;1.95;;
41293;SDS011;27037;52.010;4.446;2023-09-19T12:38:10;8.98;;;2.30;;
41293;SDS011;27037;52.010;4.446;2023-09-19T12:40:48;8.23;;;1.77;;
41293;SDS011;27037;52.010;4.446;2023-09-19T12:43:16;6.88;;;1.75;;
41293;SDS011;27037;52.010;4.446;2023-09-19T12:45:43;11.05;;;2.15;;
41293;SDS011;27037;52.010;4.446;2023-09-19T12:48:25;12.93;;;1.70;;
41293;SDS011;27037;52.010;4.446;2023-09-19T12:51:07;14.30;;;2.30;;
41293;SDS011;27037;52.010;4.446;2023-09-19T12:53:38;12.07;;;2.30;;
41293;SDS011;27037;52.010;4.446;2023-09-19T12:56:09;7.32;;;2.05;;
41293;SDS011;27037;52.010;4.446;2023-09-19T13:01:28;8.82;;;2.40;;
41293;SDS011;27037;52.010;4.446;2023-09-19T13:06:40;10.13;;;2.25;;
41293;SDS011;27037;52.010;4.446;2023-09-19T13:09:09;7.28;;;2.10;;
41293;SDS011;27037;52.010;4.446;2023-09-19T13:11:36;9.73;;;2.22;;
41293;SDS011;27037;52.010;4.446;2023-09-19T13:14:15;10.20;;;2.33;;
41293;SDS011;27037;52.010;4.446;2023-09-19T13:19:35;10.57;;;2.63;;
41293;SDS011;27037;52.010;4.446;2023-09-19T13:22:01;13.38;;;2.45;;
41293;SDS011;27037;52.010;4.446;2023-09-19T13:24:27;8.90;;;2.05;;
41293;SDS011;27037;52.010;4.446;2023-09-19T13:26:55;15.57;;;2.17;;
41293;SDS011;27037;52.010;4.446;2023-09-19T13:29:21;8.43;;;1.98;;
41293;SDS011;27037;52.010;4.446;2023-09-19T13:31:47;8.13;;;2.10;;
41293;SDS011;27037;52.010;4.446;2023-09-19T13:34:14;12.38;;;2.95;;
41293;SDS011;27037;52.010;4.446;2023-09-19T13:36:41;10.45;;;2.40;;
41293;SDS011;27037;52.010;4.446;2023-09-19T13:39:10;14.40;;;2.58;;
41293;SDS011;27037;52.010;4.446;2023-09-19T13:41:38;15.70;;;2.35;;
41293;SDS011;27037;52.010;4.446;2023-09-19T13:44:04;11.40;;;2.58;;
41293;SDS011;27037;52.010;4.446;2023-09-19T13:46:30;11.48;;;2.50;;
41293;SDS011;27037;52.010;4.446;2023-09-19T13:48:59;14.02;;;2.78;;
41293;SDS011;27037;52.010;4.446;2023-09-19T13:51:28;11.48;;;2.80;;
41293;SDS011;27037;52.010;4.446;2023-09-19T13:53:55;15.60;;;2.72;;
41293;SDS011;27037;52.010;4.446;2023-09-19T13:56:21;17.40;;;3.17;;
41293;SDS011;27037;52.010;4.446;2023-09-19T13:58:46;9.23;;;2.50;;
41293;SDS011;27037;52.010;4.446;2023-09-19T14:01:12;8.70;;;2.45;;
41293;SDS011;27037;52.010;4.446;2023-09-19T14:03:39;12.57;;;3.00;;
41293;SDS011;27037;52.010;4.446;2023-09-19T14:06:05;14.85;;;3.15;;
41293;SDS011;27037;52.010;4.446;2023-09-19T14:08:31;9.52;;;3.08;;
41293;SDS011;27037;52.010;4.446;2023-09-19T14:10:59;16.95;;;3.17;;
41293;SDS011;27037;52.010;4.446;2023-09-19T14:13:30;17.13;;;3.53;;
41293;SDS011;27037;52.010;4.446;2023-09-19T14:15:55;13.65;;;3.17;;
41293;SDS011;27037;52.010;4.446;2023-09-19T14:18:21;13.98;;;3.05;;
41293;SDS011;27037;52.010;4.446;2023-09-19T14:20:47;11.20;;;3.17;;
41293;SDS011;27037;52.010;4.446;2023-09-19T14:23:12;12.85;;;2.92;;
41293;SDS011;27037;52.010;4.446;2023-09-19T14:25:39;15.38;;;3.30;;
41293;SDS011;27037;52.010;4.446;2023-09-19T14:28:06;12.50;;;3.00;;
41293;SDS011;27037;52.010;4.446;2023-09-19T14:30:33;13.95;;;2.80;;
41293;SDS011;27037;52.010;4.446;2023-09-19T14:32:59;9.63;;;2.65;;
41293;SDS011;27037;52.010;4.446;2023-09-19T14:35:26;15.18;;;2.85;;
41293;SDS011;27037;52.010;4.446;2023-09-19T14:37:51;13.07;;;3.25;;
41293;SDS011;27037;52.010;4.446;2023-09-19T14:40:17;13.20;;;3.20;;
41293;SDS011;27037;52.010;4.446;2023-09-19T14:42:43;16.80;;;3.25;;
41293;SDS011;27037;52.010;4.446;2023-09-19T14:45:10;13.95;;;2.85;;
41293;SDS011;27037;52.010;4.446;2023-09-19T14:47:36;14.75;;;3.15;;
41293;SDS011;27037;52.010;4.446;2023-09-19T14:50:02;13.20;;;3.15;;
41293;SDS011;27037;52.010;4.446;2023-09-19T14:52:32;12.52;;;2.80;;
41293;SDS011;27037;52.010;4.446;2023-09-19T14:54:58;8.93;;;2.90;;
41293;SDS011;27037;52.010;4.446;2023-09-19T14:57:24;10.65;;;3.10;;
41293;SDS011;27037;52.010;4.446;2023-09-19T14:59:51;13.10;;;3.17;;
41293;SDS011;27037;52.010;4.446;2023-09-19T15:02:16;13.45;;;3.33;;
41293;SDS011;27037;52.010;4.446;2023-09-19T15:04:42;13.98;;;3.60;;
41293;SDS011;27037;52.010;4.446;2023-09-19T15:07:12;11.85;;;3.10;;
41293;SDS011;27037;52.010;4.446;2023-09-19T15:09:40;12.65;;;3.00;;
41293;SDS011;27037;52.010;4.446;2023-09-19T15:12:06;15.30;;;3.95;;
41293;SDS011;27037;52.010;4.446;2023-09-19T15:14:32;15.30;;;3.40;;
41293;SDS011;27037;52.010;4.446;2023-09-19T15:17:01;14.80;;;3.58;;
41293;SDS011;27037;52.010;4.446;2023-09-19T15:19:29;19.17;;;4.28;;
41293;SDS011;27037;52.010;4.446;2023-09-19T15:21:55;16.80;;;3.97;;
41293;SDS011;27037;52.010;4.446;2023-09-19T15:24:22;14.93;;;3.90;;
41293;SDS011;27037;52.010;4.446;2023-09-19T15:26:51;17.23;;;3.90;;
41293;SDS011;27037;52.010;4.446;2023-09-19T15:29:17;15.63;;;3.90;;
41293;SDS011;27037;52.010;4.446;2023-09-19T15:31:43;13.55;;;3.90;;
41293;SDS011;27037;52.010;4.446;2023-09-19T15:34:08;15.52;;;4.55;;